createdAt,value
2023-02-03T00:01:40.832Z,601.00
2023-02-03T00:15:41.049Z,595.00
2023-02-03T00:16:41.136Z,602.00
2023-02-03T00:17:41.094Z,603.00
2023-02-03T00:18:41.147Z,597.00
2023-02-03T00:19:41.142Z,597.00
2023-02-03T00:20:41.176Z,599.00
2023-02-03T00:21:41.197Z,594.00
2023-02-03T00:22:41.192Z,593.00
2023-02-03T00:23:41.252Z,596.00
2023-02-03T00:24:41.248Z,597.00
2023-02-03T00:25:41.215Z,592.00
2023-02-03T00:26:41.252Z,599.00
2023-02-03T00:27:41.304Z,602.00
2023-02-03T00:45:41.499Z,603.00
2023-02-03T00:52:41.910Z,600.00
2023-02-03T00:58:42.240Z,602.00
2023-02-03T00:59:42.324Z,604.00
2023-02-03T01:00:42.369Z,603.00
2023-02-03T01:01:42.418Z,600.00
2023-02-03T01:02:42.681Z,601.00
2023-02-03T01:03:42.509Z,601.00
2023-02-03T01:04:42.595Z,604.00
2023-02-03T01:05:42.632Z,602.00
2023-02-03T01:06:42.682Z,602.00
2023-02-03T01:07:42.704Z,606.00
2023-02-03T01:08:42.777Z,604.00
2023-02-03T01:09:42.827Z,602.00
2023-02-03T01:10:42.976Z,603.00
2023-02-03T01:11:42.912Z,602.00
2023-02-03T01:12:42.957Z,601.00
2023-02-03T01:13:43.021Z,605.00
2023-02-03T01:14:43.076Z,604.00
2023-02-03T01:15:43.099Z,606.00
2023-02-03T01:16:43.237Z,602.00
2023-02-03T01:17:43.175Z,604.00
2023-02-03T01:18:43.253Z,600.00
2023-02-03T01:19:43.275Z,601.00
2023-02-03T01:20:43.307Z,603.00
2023-02-03T01:21:43.344Z,602.00
2023-02-03T01:22:43.401Z,602.00
2023-02-03T01:23:43.433Z,600.00
2023-02-03T01:24:43.495Z,599.00
2023-02-03T01:25:43.518Z,603.00
2023-02-03T01:26:43.560Z,597.00
2023-02-03T01:27:43.592Z,600.00
2023-02-03T01:28:43.625Z,600.00
2023-02-03T01:29:43.653Z,595.00
2023-02-03T01:30:43.713Z,595.00
2023-02-03T01:31:43.790Z,597.00
2023-02-03T01:32:43.752Z,598.00
2023-02-03T01:33:43.810Z,596.00
2023-02-03T01:34:43.872Z,598.00
2023-02-03T01:35:43.859Z,596.00
2023-02-03T01:36:43.877Z,596.00
2023-02-03T01:37:43.929Z,601.00
2023-02-03T01:38:43.926Z,595.00
2023-02-03T01:39:44.007Z,596.00
2023-02-03T01:40:44.018Z,600.00
2023-02-03T01:41:44.035Z,592.00
2023-02-03T01:42:44.060Z,600.00
2023-02-03T01:43:44.136Z,599.00
2023-02-03T01:44:44.142Z,593.00
2023-02-03T01:45:44.181Z,595.00
2023-02-03T01:46:44.200Z,593.00
2023-02-03T01:47:44.200Z,596.00
2023-02-03T01:48:44.231Z,597.00
2023-02-03T01:49:44.272Z,594.00
2023-02-03T01:50:44.280Z,597.00
2023-02-03T01:51:44.336Z,591.00
2023-02-03T01:52:44.351Z,594.00
2023-02-03T01:53:44.386Z,594.00
2023-02-03T01:54:44.408Z,594.00
2023-02-03T01:55:44.420Z,596.00
2023-02-03T01:56:44.490Z,592.00
2023-02-03T01:57:44.481Z,597.00
2023-02-03T01:58:44.496Z,592.00
2023-02-03T01:59:44.551Z,591.00
2023-02-03T02:00:44.559Z,590.00
2023-02-03T02:01:44.605Z,594.00
2023-02-03T02:02:44.641Z,593.00
2023-02-03T02:03:44.594Z,590.00
2023-02-03T02:04:44.709Z,587.00
2023-02-03T02:05:44.739Z,586.00
2023-02-03T02:06:44.674Z,584.00
2023-02-03T02:07:44.717Z,584.00
2023-02-03T02:08:44.708Z,592.00
2023-02-03T02:09:44.724Z,591.00
2023-02-03T02:10:44.721Z,590.00
2023-02-03T02:11:44.764Z,585.00
2023-02-03T02:12:44.796Z,589.00
2023-02-03T02:13:44.808Z,587.00
2023-02-03T02:14:44.857Z,586.00
2023-02-03T02:15:44.873Z,591.00
2023-02-03T02:16:44.885Z,585.00
2023-02-03T02:17:44.872Z,587.00
2023-02-03T02:18:44.902Z,591.00
2023-02-03T02:19:44.908Z,587.00
2023-02-03T02:20:44.922Z,586.00
2023-02-03T02:21:44.973Z,584.00
2023-02-03T02:22:44.981Z,589.00
2023-02-03T02:23:44.994Z,584.00
2023-02-03T02:24:45.015Z,587.00
2023-02-03T02:25:45.009Z,581.00
2023-02-03T02:26:45.072Z,583.00
2023-02-03T02:27:45.059Z,587.00
2023-02-03T02:28:45.048Z,585.00
2023-02-03T02:29:45.088Z,583.00
2023-02-03T02:30:45.152Z,580.00
2023-02-03T02:31:45.231Z,584.00
2023-02-03T02:32:45.210Z,578.00
2023-02-03T02:33:45.126Z,582.00
2023-02-03T02:34:45.169Z,578.00
2023-02-03T02:35:45.155Z,580.00
2023-02-03T02:36:45.214Z,580.00
2023-02-03T02:37:45.217Z,579.00
2023-02-03T02:38:45.224Z,577.00
2023-02-03T02:39:45.253Z,578.00
2023-02-03T02:40:45.312Z,581.00
2023-02-03T02:42:45.326Z,576.00
2023-02-03T02:43:45.384Z,578.00
2023-02-03T02:44:45.421Z,572.00
2023-02-03T02:45:45.400Z,570.00
2023-02-03T02:46:45.452Z,575.00
2023-02-03T02:47:45.444Z,573.00
2023-02-03T02:48:45.492Z,573.00
2023-02-03T02:51:45.556Z,572.00
2023-02-03T02:52:45.591Z,571.00
2023-02-03T03:05:45.974Z,565.00
2023-02-03T03:23:46.676Z,555.00
2023-02-03T03:24:46.726Z,553.00
2023-02-03T03:25:46.800Z,547.00
2023-02-03T03:26:46.827Z,555.00
2023-02-03T03:27:46.894Z,551.00
2023-02-03T03:28:46.877Z,550.00
2023-02-03T03:29:46.950Z,549.00
2023-02-03T03:30:47.021Z,547.00
2023-02-03T03:31:47.089Z,549.00
2023-02-03T03:32:47.089Z,547.00
2023-02-03T03:33:47.099Z,549.00
2023-02-03T03:34:47.204Z,551.00
2023-02-03T03:35:47.196Z,544.00
2023-02-03T03:36:47.229Z,544.00
2023-02-03T03:37:47.252Z,551.00
2023-02-03T03:38:47.378Z,543.00
2023-02-03T03:39:47.386Z,542.00
2023-02-03T03:40:47.427Z,544.00
2023-02-03T03:41:47.492Z,547.00
2023-02-03T03:42:47.529Z,540.00
2023-02-03T03:43:47.564Z,542.00
2023-02-03T03:44:47.610Z,539.00
2023-02-03T03:45:47.672Z,537.00
2023-02-03T03:46:47.796Z,541.00
2023-02-03T03:47:47.800Z,539.00
2023-02-03T03:48:47.889Z,541.00
2023-02-03T03:49:47.887Z,536.00
2023-02-03T03:50:47.953Z,540.00
2023-02-03T03:51:48.002Z,540.00
2023-02-03T03:52:48.072Z,538.00
2023-02-03T03:53:48.110Z,536.00
2023-02-03T03:54:48.206Z,536.00
2023-02-03T03:55:48.240Z,539.00
2023-02-03T03:56:48.289Z,540.00
2023-02-03T03:57:48.339Z,537.00
2023-02-03T03:58:48.417Z,544.00
2023-02-03T03:59:48.495Z,540.00
2023-02-03T04:00:48.511Z,538.00
2023-02-03T04:01:48.665Z,538.00
2023-02-03T04:02:48.794Z,534.00
2023-02-03T04:03:48.689Z,533.00
2023-02-03T04:04:48.785Z,530.00
2023-02-03T04:05:48.851Z,539.00
2023-02-03T04:06:48.932Z,538.00
2023-02-03T04:07:48.971Z,524.00
2023-02-03T04:08:49.007Z,535.00
2023-02-03T04:09:49.105Z,532.00
2023-02-03T04:10:49.177Z,531.00
2023-02-03T04:11:49.223Z,536.00
2023-02-03T04:12:49.278Z,535.00
2023-02-03T04:13:49.338Z,531.00
2023-02-03T04:14:49.385Z,526.00
2023-02-03T04:15:49.474Z,531.00
2023-02-03T04:16:49.532Z,536.00
2023-02-03T04:17:49.585Z,533.00
2023-02-03T04:18:49.645Z,536.00
2023-02-03T04:19:49.725Z,535.00
2023-02-03T04:20:49.793Z,533.00
2023-02-03T04:21:49.858Z,530.00
2023-02-03T04:22:49.906Z,534.00
2023-02-03T04:23:49.977Z,532.00
2023-02-03T04:24:50.041Z,534.00
2023-02-03T04:25:50.111Z,530.00
2023-02-03T04:26:50.177Z,534.00
2023-02-03T04:27:50.286Z,527.00
2023-02-03T04:28:50.295Z,528.00
2023-02-03T04:29:50.338Z,530.00
2023-02-03T04:30:50.450Z,529.00
2023-02-03T04:31:50.556Z,526.00
2023-02-03T04:32:50.503Z,525.00
2023-02-03T04:33:50.575Z,531.00
2023-02-03T04:34:50.576Z,526.00
2023-02-03T05:14:53.011Z,529.00
2023-02-03T05:15:53.042Z,523.00
2023-02-03T05:16:53.183Z,527.00
2023-02-03T05:17:53.103Z,532.00
2023-02-03T05:18:53.159Z,517.00
2023-02-03T05:19:53.267Z,523.00
2023-02-03T05:20:53.306Z,527.00
2023-02-03T05:21:53.378Z,526.00
2023-02-03T05:22:53.432Z,523.00
2023-02-03T05:23:53.478Z,524.00
2023-02-03T05:24:53.553Z,520.00
2023-02-03T05:25:53.612Z,519.00
2023-02-03T05:26:53.675Z,525.00
2023-02-03T05:27:53.777Z,529.00
2023-02-03T05:28:56.050Z,526.00
2023-02-03T05:29:53.771Z,530.00
2023-02-03T05:30:53.785Z,523.00
2023-02-03T05:31:53.806Z,523.00
2023-02-03T05:32:53.757Z,525.00
2023-02-03T05:33:53.751Z,526.00
2023-02-03T05:34:53.789Z,527.00
2023-02-03T05:35:53.758Z,523.00
2023-02-03T05:36:53.748Z,525.00
2023-02-03T05:37:53.719Z,526.00
2023-02-03T05:38:53.748Z,518.00
2023-02-03T05:39:53.708Z,524.00
2023-02-03T05:40:53.723Z,525.00
2023-02-03T05:41:54.093Z,519.00
2023-02-03T05:42:53.726Z,522.00
2023-02-03T05:43:53.691Z,522.00
2023-02-03T05:44:53.690Z,528.00
2023-02-03T06:15:53.557Z,516.00
2023-02-03T06:16:53.549Z,517.00
2023-02-03T06:17:53.469Z,523.00
2023-02-03T06:18:53.499Z,518.00
2023-02-03T06:19:53.491Z,523.00
2023-02-03T06:20:53.480Z,515.00
2023-02-03T06:21:53.462Z,524.00
2023-02-03T06:22:53.441Z,535.00
2023-02-03T06:23:53.447Z,527.00
2023-02-03T06:24:53.438Z,541.00
2023-02-03T06:25:53.491Z,541.00
2023-02-03T06:26:53.572Z,542.00
2023-02-03T06:28:53.694Z,1619.00
2023-02-03T06:29:53.736Z,2353.00
2023-02-03T06:30:53.896Z,1743.00
2023-02-03T06:32:53.942Z,1027.00
2023-02-03T06:33:53.991Z,999.00
2023-02-03T06:35:54.083Z,993.00
2023-02-03T06:36:54.112Z,992.00
2023-02-03T06:51:54.135Z,655.00
2023-02-03T06:52:54.130Z,661.00
2023-02-03T06:53:54.114Z,666.00
2023-02-03T06:54:54.095Z,669.00
2023-02-03T06:55:54.080Z,664.00
2023-02-03T06:56:54.064Z,699.00
2023-02-03T06:57:54.087Z,705.00
2023-02-03T06:58:54.068Z,690.00
2023-02-03T06:59:54.080Z,710.00
2023-02-03T07:00:54.052Z,740.00
2023-02-03T07:01:54.089Z,768.00
2023-02-03T07:02:54.184Z,783.00
2023-02-03T07:03:54.043Z,811.00
2023-02-03T07:04:54.024Z,812.00
2023-02-03T07:05:54.030Z,815.00
2023-02-03T07:06:54.014Z,847.00
2023-02-03T07:07:53.995Z,880.00
2023-02-03T07:08:53.997Z,861.00
2023-02-03T07:09:53.960Z,875.00
2023-02-03T07:10:53.975Z,883.00
2023-02-03T07:11:53.948Z,885.00
2023-02-03T07:12:53.988Z,912.00
2023-02-03T07:13:53.940Z,928.00
2023-02-03T07:14:53.945Z,937.00
2023-02-03T07:16:54.138Z,963.00
2023-02-03T07:17:54.042Z,968.00
2023-02-03T07:18:54.166Z,995.00
2023-02-03T07:19:53.957Z,966.00
2023-02-03T07:21:53.931Z,1016.00
2023-02-03T07:22:53.967Z,1006.00
2023-02-03T07:23:54.001Z,1027.00
2023-02-03T07:24:54.082Z,1036.00
2023-02-03T07:25:54.117Z,1022.00
2023-02-03T07:26:54.203Z,1040.00
2023-02-03T08:48:24.781Z,500.00
2023-02-03T08:49:24.752Z,500.00
2023-02-03T08:50:24.802Z,500.00
2023-02-03T08:51:24.738Z,500.00
2023-02-03T08:52:24.751Z,500.00
2023-02-03T08:53:24.755Z,500.00
2023-02-03T08:54:24.725Z,504.00
2023-02-03T08:55:24.713Z,518.00
2023-02-03T08:56:24.700Z,522.00
2023-02-03T08:57:24.729Z,509.00
2023-02-03T08:58:24.678Z,514.00
2023-02-03T08:59:24.687Z,516.00
2023-02-03T09:00:24.649Z,508.00
2023-02-03T09:01:24.735Z,505.00
2023-02-03T09:02:24.634Z,501.00
2023-02-03T09:03:24.665Z,516.00
2023-02-03T09:04:24.824Z,504.00
2023-02-03T09:05:24.685Z,524.00
2023-02-03T09:06:26.231Z,506.00
2023-02-03T09:07:24.649Z,508.00
2023-02-03T09:08:24.615Z,520.00
2023-02-03T09:09:24.663Z,516.00
2023-02-03T09:10:24.738Z,510.00
2023-02-03T09:11:25.968Z,523.00
2023-02-03T09:12:24.632Z,524.00
2023-02-03T09:13:24.593Z,512.00
2023-02-03T09:14:24.605Z,500.00
2023-02-03T09:15:24.599Z,514.00
2023-02-03T09:16:24.587Z,498.00
2023-02-03T09:17:24.603Z,507.00
2023-02-03T09:18:24.559Z,502.00
2023-02-03T09:19:24.641Z,503.00
2023-02-03T09:20:24.719Z,523.00
2023-02-03T09:21:39.268Z,512.00
2023-02-03T09:22:25.720Z,513.00
2023-02-03T09:23:24.691Z,515.00
2023-02-03T09:24:24.738Z,514.00
2023-02-03T09:25:24.706Z,516.00
2023-02-03T09:26:24.674Z,516.00
2023-02-03T09:27:24.681Z,517.00
2023-02-03T09:28:24.661Z,501.00
2023-02-03T09:29:24.673Z,500.00
2023-02-03T09:30:24.765Z,509.00
2023-02-03T09:31:25.029Z,500.00
2023-02-03T09:32:24.751Z,510.00
2023-02-03T09:33:24.825Z,503.00
2023-02-03T09:34:24.826Z,520.00
2023-02-03T09:35:24.855Z,520.00
2023-02-03T09:36:24.993Z,510.00
2023-02-03T09:37:24.977Z,504.00
2023-02-03T09:38:24.975Z,500.00
2023-02-03T09:39:25.011Z,509.00
2023-02-03T09:40:25.430Z,505.00
2023-02-03T09:41:25.500Z,509.00
2023-02-03T09:42:25.160Z,510.00
2023-02-03T09:43:25.193Z,507.00
2023-02-03T09:44:25.257Z,510.00
2023-02-03T09:45:25.290Z,517.00
2023-02-03T09:46:25.401Z,515.00
2023-02-03T09:47:25.439Z,511.00
2023-02-03T09:48:25.503Z,508.00
2023-02-03T09:49:25.552Z,507.00
2023-02-03T09:50:26.007Z,511.00
2023-02-03T09:51:25.676Z,531.00
2023-02-03T09:52:25.968Z,529.00
2023-02-03T09:53:25.683Z,524.00
2023-02-03T09:54:25.731Z,529.00
2023-02-03T09:55:25.772Z,536.00
2023-02-03T09:56:25.813Z,533.00
2023-02-03T09:57:25.857Z,535.00
2023-02-03T09:58:25.899Z,543.00
2023-02-03T09:59:25.972Z,541.00
2023-02-03T10:00:26.276Z,529.00
2023-02-03T10:01:26.073Z,527.00
2023-02-03T10:02:26.253Z,531.00
2023-02-03T10:03:26.175Z,530.00
2023-02-03T10:04:26.135Z,528.00
2023-02-03T10:05:26.177Z,527.00
2023-02-03T10:06:26.281Z,532.00
2023-02-03T10:07:26.351Z,525.00
2023-02-03T10:08:26.609Z,530.00
2023-02-03T10:09:26.404Z,529.00
2023-02-03T10:10:26.861Z,529.00
2023-02-03T10:11:26.517Z,530.00
2023-02-03T10:12:27.104Z,522.00
2023-02-03T10:13:26.670Z,524.00
2023-02-03T10:14:26.649Z,520.00
2023-02-03T10:15:26.690Z,514.00
2023-02-03T10:16:26.711Z,524.00
2023-02-03T10:17:27.057Z,519.00
2023-02-03T10:18:26.848Z,520.00
2023-02-03T10:19:26.850Z,515.00
2023-02-03T10:20:27.363Z,515.00
2023-02-03T10:21:26.996Z,514.00
2023-02-03T10:22:27.492Z,510.00
2023-02-03T10:23:27.052Z,513.00
2023-02-03T10:24:27.123Z,500.00
2023-02-03T10:25:27.193Z,507.00
2023-02-03T10:26:27.279Z,501.00
2023-02-03T10:27:27.276Z,507.00
2023-02-03T10:28:27.353Z,503.00
2023-02-03T10:29:27.348Z,506.00
2023-02-03T10:30:27.876Z,508.00
2023-02-03T10:31:27.668Z,500.00
2023-02-03T10:32:27.560Z,506.00
2023-02-03T10:33:27.625Z,501.00
2023-02-03T10:34:27.701Z,507.00
2023-02-03T10:35:27.740Z,501.00
2023-02-03T10:36:27.774Z,505.00
2023-02-03T10:37:29.319Z,501.00
2023-02-03T10:38:27.854Z,506.00
2023-02-03T10:39:27.912Z,510.00
2023-02-03T10:40:28.197Z,502.00
2023-02-03T10:41:28.041Z,504.00
2023-02-03T10:42:28.036Z,507.00
2023-02-03T10:43:27.941Z,501.00
2023-02-03T10:44:28.004Z,502.00
2023-02-03T10:45:27.979Z,509.00
2023-02-03T10:46:28.205Z,503.00
2023-02-03T10:47:28.537Z,511.00
2023-02-03T10:48:28.115Z,516.00
2023-02-03T10:49:28.145Z,532.00
2023-02-03T10:50:29.372Z,530.00
2023-02-03T10:51:28.167Z,536.00
2023-02-03T10:52:28.523Z,544.00
2023-02-03T10:53:28.133Z,547.00
2023-02-03T10:54:28.137Z,541.00
2023-02-03T10:55:28.151Z,539.00
2023-02-03T10:56:28.204Z,548.00
2023-02-03T10:57:28.130Z,559.00
2023-02-03T10:58:28.185Z,560.00
2023-02-03T10:59:28.171Z,561.00
2023-02-03T11:00:28.456Z,573.00
2023-02-03T11:01:28.228Z,636.00
2023-02-03T11:02:28.174Z,817.00
2023-02-03T11:03:28.185Z,932.00
2023-02-03T11:04:28.166Z,960.00
2023-02-03T11:05:28.320Z,1001.00
2023-02-03T11:06:28.142Z,842.00
2023-02-03T11:07:28.184Z,929.00
2023-02-03T11:08:28.157Z,998.00
2023-02-03T11:09:28.199Z,995.00
2023-02-03T11:10:28.485Z,985.00
2023-02-03T11:11:28.162Z,977.00
2023-02-03T11:12:28.156Z,960.00
2023-02-03T11:13:28.162Z,986.00
2023-02-03T11:14:28.226Z,1212.00
2023-02-03T11:15:28.600Z,1144.00
2023-02-03T11:16:28.324Z,1181.00
2023-02-03T11:17:28.528Z,1165.00
2023-02-03T11:18:28.452Z,1181.00
2023-02-03T11:19:28.539Z,1203.00
2023-02-03T11:20:28.855Z,1204.00
2023-02-03T11:21:28.606Z,1188.00
2023-02-03T11:22:28.737Z,1181.00
2023-02-03T11:23:28.752Z,1131.00
2023-02-03T11:24:28.824Z,1138.00
2023-02-03T11:25:28.913Z,1126.00
2023-02-03T11:27:28.986Z,1128.00
2023-02-03T11:28:29.019Z,1099.00
2023-02-03T11:29:29.077Z,1027.00
2023-02-03T11:30:29.489Z,1040.00
2023-02-03T11:31:29.250Z,1068.00
2023-02-03T11:32:29.552Z,1067.00
2023-02-03T11:33:29.358Z,1095.00
2023-02-03T11:34:29.401Z,956.00
2023-02-03T11:35:29.369Z,1047.00
2023-02-03T11:36:29.379Z,1067.00
2023-02-03T11:37:29.622Z,1055.00
2023-02-03T11:38:29.490Z,1052.00
2023-02-03T11:39:29.543Z,1036.00
2023-02-03T11:40:29.952Z,1032.00
2023-02-03T11:41:29.617Z,1039.00
2023-02-03T11:42:30.073Z,1027.00
2023-02-03T11:43:30.064Z,1021.00
2023-02-03T11:44:29.698Z,1012.00
2023-02-03T11:45:29.739Z,1011.00
2023-02-03T11:46:29.843Z,1020.00
2023-02-03T11:47:30.578Z,1015.00
2023-02-03T11:48:30.029Z,1001.00
2023-02-03T11:49:30.143Z,1003.00
2023-02-03T11:50:30.528Z,994.00
2023-02-03T11:51:30.054Z,977.00
2023-02-03T11:52:30.416Z,976.00
2023-02-03T11:53:30.790Z,970.00
2023-02-03T11:54:31.267Z,966.00
2023-02-03T11:55:30.232Z,961.00
2023-02-03T11:56:30.450Z,953.00
2023-02-03T11:57:30.812Z,960.00
2023-02-03T11:58:31.358Z,948.00
2023-02-03T11:59:31.428Z,944.00
2023-02-03T12:00:30.650Z,938.00
2023-02-03T12:01:30.467Z,948.00
2023-02-03T12:02:31.074Z,934.00
2023-02-03T12:03:31.865Z,939.00
2023-02-03T12:04:30.768Z,925.00
2023-02-03T12:05:30.937Z,918.00
2023-02-03T12:06:30.709Z,918.00
2023-02-03T12:07:30.736Z,920.00
2023-02-03T12:08:31.079Z,910.00
2023-02-03T12:09:30.827Z,913.00
2023-02-03T12:10:31.454Z,900.00
2023-02-03T12:11:31.620Z,900.00
2023-02-03T12:12:31.176Z,897.00
2023-02-03T12:13:31.272Z,884.00
2023-02-03T12:14:31.409Z,873.00
2023-02-03T12:15:31.808Z,887.00
2023-02-03T12:16:32.124Z,863.00
2023-02-03T12:17:32.841Z,862.00
2023-02-03T12:18:31.836Z,861.00
2023-02-03T12:19:32.982Z,859.00
2023-02-03T12:20:31.757Z,857.00
2023-02-03T12:21:31.562Z,865.00
2023-02-03T12:22:31.863Z,854.00
2023-02-03T12:23:33.489Z,852.00
2023-02-03T12:24:31.868Z,854.00
2023-02-03T12:25:31.807Z,859.00
2023-02-03T12:26:32.577Z,846.00
2023-02-03T12:27:32.094Z,846.00
2023-02-03T12:28:33.964Z,841.00
2023-02-03T12:29:32.653Z,840.00
2023-02-03T12:30:32.200Z,841.00
2023-02-03T12:31:31.923Z,833.00
2023-02-03T12:32:31.967Z,829.00
2023-02-03T12:33:32.116Z,839.00
2023-02-03T12:34:32.069Z,835.00
2023-02-03T12:35:32.189Z,831.00
2023-02-03T12:38:33.078Z,831.00
2023-02-03T12:44:33.106Z,825.00
2023-02-03T12:51:32.949Z,805.00
2023-02-03T12:52:33.006Z,794.00
2023-02-03T12:53:33.032Z,815.00
2023-02-03T12:54:33.131Z,804.00
2023-02-03T12:55:33.141Z,806.00
2023-02-03T12:56:33.195Z,792.00
2023-02-03T12:57:33.239Z,801.00
2023-02-03T12:58:34.655Z,789.00
2023-02-03T12:59:33.359Z,781.00
2023-02-03T13:00:33.431Z,799.00
2023-02-03T13:01:33.493Z,786.00
2023-02-03T13:02:33.507Z,790.00
2023-02-03T13:03:33.594Z,778.00
2023-02-03T13:04:33.627Z,777.00
2023-02-03T13:05:33.684Z,783.00
2023-02-03T13:06:33.732Z,782.00
2023-02-03T13:07:33.805Z,778.00
2023-02-03T13:08:33.863Z,773.00
2023-02-03T13:09:33.885Z,779.00
2023-02-03T13:10:33.958Z,759.00
2023-02-03T13:11:34.012Z,766.00
2023-02-03T13:12:34.088Z,764.00
2023-02-03T13:13:34.125Z,771.00
2023-02-03T13:14:34.240Z,770.00
2023-02-03T13:15:34.245Z,759.00
2023-02-03T13:16:34.353Z,762.00
2023-02-03T13:17:34.369Z,758.00
2023-02-03T13:18:34.471Z,767.00
2023-02-03T13:19:34.524Z,751.00
2023-02-03T13:20:34.544Z,750.00
2023-02-03T13:21:34.632Z,748.00
2023-02-03T13:22:34.648Z,749.00
2023-02-03T13:23:34.718Z,760.00
2023-02-03T13:24:34.782Z,746.00
2023-02-03T13:25:34.830Z,731.00
2023-02-03T13:26:53.912Z,500.00
2023-02-03T13:27:53.945Z,500.00
2023-02-03T13:28:53.906Z,500.00
2023-02-03T13:29:53.916Z,500.00
2023-02-03T13:30:53.968Z,500.00
2023-02-03T13:31:53.931Z,500.00
2023-02-03T13:32:53.935Z,502.00
2023-02-03T13:33:53.896Z,503.00
2023-02-03T13:34:53.879Z,502.00
2023-02-03T13:35:53.903Z,500.00
2023-02-03T13:36:53.856Z,503.00
2023-02-03T13:37:53.827Z,506.00
2023-02-03T13:38:53.865Z,507.00
2023-02-03T13:39:53.848Z,501.00
2023-02-03T13:40:53.815Z,504.00
2023-02-03T13:41:53.814Z,504.00
2023-02-03T13:42:53.870Z,508.00
2023-02-03T13:43:53.804Z,504.00
2023-02-03T13:44:53.810Z,506.00
2023-02-03T13:45:53.796Z,503.00
2023-02-03T13:46:53.760Z,504.00
2023-02-03T13:47:53.772Z,502.00
2023-02-03T13:48:53.776Z,508.00
2023-02-03T13:49:53.791Z,508.00
2023-02-03T13:50:53.750Z,505.00
2023-02-03T13:51:53.753Z,504.00
2023-02-03T13:52:56.234Z,503.00
2023-02-03T13:53:53.725Z,506.00
2023-02-03T13:54:53.771Z,502.00
2023-02-03T13:55:53.729Z,507.00
2023-02-03T13:56:53.721Z,506.00
2023-02-03T13:57:53.700Z,507.00
2023-02-03T13:58:53.710Z,507.00
2023-02-03T13:59:53.720Z,501.00
2023-02-03T14:00:53.674Z,501.00
2023-02-03T14:01:53.679Z,505.00
2023-02-03T14:02:53.643Z,504.00
2023-02-03T14:03:53.771Z,503.00
2023-02-03T14:04:54.330Z,507.00
2023-02-03T14:05:53.657Z,504.00
2023-02-03T14:06:53.661Z,500.00
2023-02-03T14:07:53.648Z,508.00
2023-02-03T14:08:53.663Z,513.00
2023-02-03T14:09:53.673Z,506.00
2023-02-03T14:10:53.618Z,505.00
2023-02-03T14:11:53.615Z,504.00
2023-02-03T14:12:53.639Z,506.00
2023-02-03T14:13:53.588Z,508.00
2023-02-03T14:14:53.621Z,512.00
2023-02-03T14:15:53.625Z,503.00
2023-02-03T14:16:55.044Z,511.00
2023-02-03T14:17:53.578Z,506.00
2023-02-03T14:18:53.561Z,510.00
2023-02-03T14:19:53.569Z,511.00
2023-02-03T14:20:53.581Z,504.00
2023-02-03T14:21:53.543Z,506.00
2023-02-03T14:22:53.562Z,507.00
2023-02-03T14:23:53.567Z,505.00
2023-02-03T14:24:53.577Z,502.00
2023-02-03T14:25:53.573Z,503.00
2023-02-03T14:26:53.528Z,501.00
2023-02-03T14:27:53.521Z,505.00
2023-02-03T14:28:54.082Z,505.00
2023-02-03T14:29:53.507Z,508.00
2023-02-03T14:30:53.654Z,506.00
2023-02-03T14:31:53.630Z,507.00
2023-02-03T14:32:53.689Z,505.00
2023-02-03T14:33:53.731Z,505.00
2023-02-03T14:34:53.768Z,506.00
2023-02-03T14:41:54.190Z,508.00
2023-02-03T14:43:04.837Z,504.00
2023-02-03T14:43:55.290Z,504.00
2023-02-03T14:44:54.210Z,504.00
2023-02-03T14:45:54.291Z,489.00
2023-02-03T14:46:54.233Z,492.00
2023-02-03T14:47:54.191Z,515.00
2023-02-03T14:48:54.200Z,509.00
2023-02-03T14:49:54.177Z,521.00
2023-02-03T14:50:54.184Z,541.00
2023-02-03T14:51:54.203Z,518.00
2023-02-03T14:52:54.175Z,515.00
2023-02-03T14:53:54.237Z,522.00
2023-02-03T14:54:54.288Z,522.00
2023-02-03T14:55:54.343Z,519.00
2023-02-03T14:56:54.409Z,528.00
2023-02-03T14:57:54.507Z,521.00
2023-02-03T14:58:54.626Z,523.00
2023-02-03T14:59:54.586Z,526.00
2023-02-03T15:00:54.684Z,526.00
2023-02-03T15:01:54.776Z,524.00
2023-02-03T15:02:54.787Z,530.00
2023-02-03T15:03:54.846Z,522.00
2023-02-03T15:04:54.943Z,522.00
2023-02-03T15:05:54.978Z,523.00
2023-02-03T15:06:55.033Z,517.00
2023-02-03T15:07:55.095Z,524.00
2023-02-03T15:08:55.127Z,522.00
2023-02-03T15:09:55.201Z,519.00
2023-02-03T15:10:55.288Z,512.00
2023-02-03T15:12:55.381Z,514.00
2023-02-03T15:13:55.472Z,507.00
2023-02-03T15:14:55.546Z,506.00
2023-02-03T15:15:55.614Z,507.00
2023-02-03T15:16:55.623Z,511.00
2023-02-03T15:17:55.719Z,508.00
2023-02-03T15:18:55.785Z,506.00
2023-02-03T15:19:55.817Z,504.00
2023-02-03T15:20:55.859Z,500.00
2023-02-03T15:21:55.948Z,503.00
2023-02-03T15:22:56.011Z,506.00
2023-02-03T15:23:56.079Z,503.00
2023-02-03T15:24:56.114Z,504.00
2023-02-03T15:25:56.231Z,506.00
2023-02-03T15:26:56.303Z,505.00
2023-02-03T15:27:56.365Z,504.00
2023-02-03T15:28:56.421Z,504.00
2023-02-03T15:29:56.468Z,501.00
2023-02-03T15:30:56.603Z,505.00
2023-02-03T15:31:56.637Z,503.00
2023-02-03T15:32:56.624Z,500.00
2023-02-03T15:33:56.753Z,502.00
2023-02-03T15:34:56.736Z,500.00
2023-02-03T15:35:56.819Z,504.00
2023-02-03T15:36:56.865Z,503.00
2023-02-03T15:37:56.943Z,509.00
2023-02-03T15:38:56.987Z,504.00
2023-02-03T15:39:57.002Z,500.00
2023-02-03T15:40:57.058Z,503.00
2023-02-03T15:41:57.118Z,505.00
2023-02-03T15:42:57.167Z,501.00
2023-02-03T15:43:57.241Z,500.00
2023-02-03T15:44:57.307Z,508.00
2023-02-03T15:45:57.392Z,502.00
2023-02-03T15:46:57.552Z,500.00
2023-02-03T15:47:57.497Z,502.00
2023-02-03T15:48:57.551Z,506.00
2023-02-03T15:49:57.623Z,502.00
2023-02-03T15:50:57.659Z,502.00
2023-02-03T15:51:57.752Z,500.00
2023-02-03T15:52:57.864Z,505.00
2023-02-03T15:53:57.946Z,502.00
2023-02-03T15:54:57.930Z,502.00
2023-02-03T15:55:57.981Z,500.00
2023-02-03T15:56:58.053Z,500.00
2023-02-03T15:57:58.111Z,506.00
2023-02-03T15:58:58.155Z,504.00
2023-02-03T16:14:58.771Z,504.00
2023-02-03T16:17:58.778Z,506.00
2023-02-03T17:04:59.064Z,504.00
2023-02-03T17:05:58.996Z,509.00
2023-02-03T17:06:59.024Z,503.00
2023-02-03T17:07:58.977Z,504.00
2023-02-03T17:08:59.501Z,503.00
2023-02-03T17:09:59.004Z,510.00
2023-02-03T17:10:58.992Z,505.00
2023-02-03T17:11:59.009Z,502.00
2023-02-03T17:12:59.004Z,504.00
2023-02-03T17:13:59.004Z,506.00
2023-02-03T17:14:59.005Z,500.00
2023-02-03T17:15:59.005Z,503.00
2023-02-03T17:25:59.025Z,506.00
2023-02-03T17:26:59.244Z,504.00
2023-02-03T17:53:29.231Z,500.00
2023-02-03T19:37:28.510Z,505.00
2023-02-03T19:38:28.530Z,506.00
2023-02-03T19:39:28.508Z,504.00
2023-02-03T19:40:28.852Z,507.00
2023-02-03T19:41:28.555Z,510.00
2023-02-03T19:42:28.552Z,505.00
2023-02-03T19:43:28.542Z,500.00
2023-02-03T19:44:28.492Z,500.00
2023-02-03T19:45:28.468Z,509.00
2023-02-03T20:34:28.183Z,508.00
2023-02-03T20:35:28.395Z,505.00
2023-02-03T20:36:28.135Z,501.00
2023-02-03T20:37:28.100Z,516.00
2023-02-03T20:38:28.102Z,505.00
2023-02-03T20:39:28.085Z,506.00
2023-02-03T20:43:28.081Z,514.00
2023-02-03T20:44:28.101Z,508.00
2023-02-03T20:45:28.353Z,515.00
2023-02-03T20:46:28.071Z,504.00
2023-02-03T20:47:28.058Z,510.00
2023-02-03T20:48:28.081Z,506.00
2023-02-03T20:49:28.054Z,508.00
2023-02-03T20:50:40.581Z,504.00
2023-02-03T20:51:29.017Z,504.00
2023-02-03T20:52:28.011Z,505.00
2023-02-03T20:53:27.991Z,505.00
2023-02-03T20:54:27.978Z,507.00
2023-02-03T20:55:28.001Z,508.00
2023-02-03T20:56:28.004Z,509.00
2023-02-03T20:57:27.984Z,511.00
2023-02-03T20:58:27.971Z,508.00
2023-02-03T20:59:27.982Z,506.00
2023-02-03T21:00:28.205Z,507.00
2023-02-03T21:01:27.975Z,509.00
2023-02-03T21:02:27.965Z,505.00
2023-02-03T21:03:27.979Z,503.00